sensor_id;sensor_type;location;lat;lon;timestamp;P1;durP1;ratioP1;P2;durP2;ratioP2
5175;SDS011;2607;50.934;6.934;2023-03-21T00:00:23;6.47;;;4.00;;
5175;SDS011;2607;50.934;6.934;2023-03-21T00:02:49;6.87;;;4.00;;
5175;SDS011;2607;50.934;6.934;2023-03-21T00:05:15;5.43;;;3.90;;
5175;SDS011;2607;50.934;6.934;2023-03-21T00:07:40;4.17;;;3.77;;
5175;SDS011;2607;50.934;6.934;2023-03-21T00:10:06;4.57;;;3.80;;
5175;SDS011;2607;50.934;6.934;2023-03-21T00:12:32;9.23;;;4.80;;
5175;SDS011;2607;50.934;6.934;2023-03-21T00:15:01;6.67;;;3.90;;
5175;SDS011;2607;50.934;6.934;2023-03-21T00:17:31;9.87;;;4.10;;
5175;SDS011;2607;50.934;6.934;2023-03-21T00:19:58;9.93;;;4.33;;
5175;SDS011;2607;50.934;6.934;2023-03-21T00:22:24;8.30;;;4.47;;
5175;SDS011;2607;50.934;6.934;2023-03-21T00:24:51;8.53;;;4.23;;
5175;SDS011;2607;50.934;6.934;2023-03-21T00:27:17;6.60;;;4.60;;
5175;SDS011;2607;50.934;6.934;2023-03-21T00:29:46;4.47;;;4.07;;
5175;SDS011;2607;50.934;6.934;2023-03-21T00:32:13;8.17;;;3.67;;
5175;SDS011;2607;50.934;6.934;2023-03-21T00:34:40;8.00;;;3.93;;
5175;SDS011;2607;50.934;6.934;2023-03-21T00:37:06;7.53;;;4.00;;
5175;SDS011;2607;50.934;6.934;2023-03-21T00:39:32;5.00;;;4.00;;
5175;SDS011;2607;50.934;6.934;2023-03-21T00:41:59;7.27;;;4.40;;
5175;SDS011;2607;50.934;6.934;2023-03-21T00:44:24;5.07;;;3.77;;
5175;SDS011;2607;50.934;6.934;2023-03-21T00:46:50;6.03;;;4.17;;
5175;SDS011;2607;50.934;6.934;2023-03-21T00:49:16;4.17;;;3.73;;
5175;SDS011;2607;50.934;6.934;2023-03-21T00:51:41;5.27;;;3.70;;
5175;SDS011;2607;50.934;6.934;2023-03-21T00:54:08;10.03;;;4.10;;
5175;SDS011;2607;50.934;6.934;2023-03-21T00:56:35;4.60;;;4.17;;
5175;SDS011;2607;50.934;6.934;2023-03-21T00:59:01;4.07;;;3.47;;
5175;SDS011;2607;50.934;6.934;2023-03-21T01:01:26;7.23;;;4.20;;
5175;SDS011;2607;50.934;6.934;2023-03-21T01:03:56;11.53;;;4.50;;
5175;SDS011;2607;50.934;6.934;2023-03-21T01:06:29;9.57;;;5.33;;
5175;SDS011;2607;50.934;6.934;2023-03-21T01:08:56;5.80;;;4.13;;
5175;SDS011;2607;50.934;6.934;2023-03-21T01:11:22;7.67;;;5.07;;
5175;SDS011;2607;50.934;6.934;2023-03-21T01:13:50;11.33;;;5.10;;
5175;SDS011;2607;50.934;6.934;2023-03-21T01:16:16;7.83;;;4.77;;
5175;SDS011;2607;50.934;6.934;2023-03-21T01:18:42;7.47;;;4.90;;
5175;SDS011;2607;50.934;6.934;2023-03-21T01:21:09;6.47;;;4.50;;
5175;SDS011;2607;50.934;6.934;2023-03-21T01:23:36;7.53;;;4.33;;
5175;SDS011;2607;50.934;6.934;2023-03-21T01:26:03;6.80;;;4.33;;
5175;SDS011;2607;50.934;6.934;2023-03-21T01:28:30;7.23;;;4.20;;
5175;SDS011;2607;50.934;6.934;2023-03-21T01:30:55;7.37;;;4.60;;
5175;SDS011;2607;50.934;6.934;2023-03-21T01:33:21;6.77;;;4.10;;
5175;SDS011;2607;50.934;6.934;2023-03-21T01:35:47;7.67;;;5.10;;
5175;SDS011;2607;50.934;6.934;2023-03-21T01:38:13;4.90;;;4.40;;
5175;SDS011;2607;50.934;6.934;2023-03-21T01:40:39;9.53;;;5.07;;
5175;SDS011;2607;50.934;6.934;2023-03-21T01:43:14;12.47;;;4.83;;
5175;SDS011;2607;50.934;6.934;2023-03-21T01:48:54;8.63;;;4.87;;
5175;SDS011;2607;50.934;6.934;2023-03-21T01:51:24;17.23;;;5.30;;
5175;SDS011;2607;50.934;6.934;2023-03-21T01:53:51;8.73;;;4.80;;
5175;SDS011;2607;50.934;6.934;2023-03-21T01:58:47;11.20;;;4.60;;
5175;SDS011;2607;50.934;6.934;2023-03-21T02:01:14;5.77;;;4.57;;
5175;SDS011;2607;50.934;6.934;2023-03-21T02:03:41;9.13;;;5.10;;
5175;SDS011;2607;50.934;6.934;2023-03-21T02:06:21;7.23;;;5.10;;
5175;SDS011;2607;50.934;6.934;2023-03-21T02:09:15;10.40;;;5.53;;
5175;SDS011;2607;50.934;6.934;2023-03-21T02:11:45;8.13;;;4.97;;
5175;SDS011;2607;50.934;6.934;2023-03-21T02:14:16;6.93;;;5.03;;
5175;SDS011;2607;50.934;6.934;2023-03-21T02:28:12;8.37;;;4.90;;
5175;SDS011;2607;50.934;6.934;2023-03-21T02:36:08;8.50;;;4.30;;
5175;SDS011;2607;50.934;6.934;2023-03-21T02:41:21;6.00;;;4.50;;
5175;SDS011;2607;50.934;6.934;2023-03-21T02:44:03;9.67;;;4.67;;
5175;SDS011;2607;50.934;6.934;2023-03-21T02:46:41;26.23;;;5.33;;
5175;SDS011;2607;50.934;6.934;2023-03-21T02:49:37;5.10;;;4.20;;
5175;SDS011;2607;50.934;6.934;2023-03-21T02:52:19;7.10;;;4.40;;
5175;SDS011;2607;50.934;6.934;2023-03-21T02:54:49;9.87;;;4.10;;
5175;SDS011;2607;50.934;6.934;2023-03-21T02:57:16;6.10;;;4.33;;
5175;SDS011;2607;50.934;6.934;2023-03-21T02:59:43;26.13;;;4.07;;
5175;SDS011;2607;50.934;6.934;2023-03-21T03:02:11;12.03;;;4.20;;
5175;SDS011;2607;50.934;6.934;2023-03-21T03:04:37;11.83;;;4.43;;
5175;SDS011;2607;50.934;6.934;2023-03-21T03:10:07;10.00;;;4.67;;
5175;SDS011;2607;50.934;6.934;2023-03-21T03:12:53;8.23;;;4.10;;
5175;SDS011;2607;50.934;6.934;2023-03-21T03:15:33;6.40;;;4.03;;
5175;SDS011;2607;50.934;6.934;2023-03-21T03:18:16;8.40;;;4.20;;
5175;SDS011;2607;50.934;6.934;2023-03-21T03:20:52;7.90;;;4.30;;
5175;SDS011;2607;50.934;6.934;2023-03-21T03:26:03;6.93;;;4.20;;
5175;SDS011;2607;50.934;6.934;2023-03-21T03:28:35;11.53;;;4.17;;
5175;SDS011;2607;50.934;6.934;2023-03-21T03:31:04;4.33;;;3.93;;
5175;SDS011;2607;50.934;6.934;2023-03-21T03:33:32;8.33;;;4.17;;
5175;SDS011;2607;50.934;6.934;2023-03-21T03:36:02;7.70;;;4.07;;
5175;SDS011;2607;50.934;6.934;2023-03-21T03:38:29;6.93;;;4.10;;
5175;SDS011;2607;50.934;6.934;2023-03-21T03:41:18;6.50;;;4.03;;
5175;SDS011;2607;50.934;6.934;2023-03-21T03:43:47;4.00;;;3.37;;
5175;SDS011;2607;50.934;6.934;2023-03-21T03:49:20;9.10;;;3.97;;
5175;SDS011;2607;50.934;6.934;2023-03-21T03:54:38;6.27;;;4.03;;
5175;SDS011;2607;50.934;6.934;2023-03-21T03:57:06;5.23;;;3.73;;
5175;SDS011;2607;50.934;6.934;2023-03-21T03:59:33;6.57;;;4.10;;
5175;SDS011;2607;50.934;6.934;2023-03-21T04:02:00;7.33;;;4.30;;
5175;SDS011;2607;50.934;6.934;2023-03-21T04:04:27;7.60;;;4.00;;
5175;SDS011;2607;50.934;6.934;2023-03-21T04:06:52;5.97;;;4.00;;
5175;SDS011;2607;50.934;6.934;2023-03-21T04:09:18;12.83;;;5.23;;
5175;SDS011;2607;50.934;6.934;2023-03-21T04:11:44;4.20;;;3.80;;
5175;SDS011;2607;50.934;6.934;2023-03-21T04:14:10;10.47;;;5.00;;
5175;SDS011;2607;50.934;6.934;2023-03-21T04:16:36;6.63;;;4.10;;
5175;SDS011;2607;50.934;6.934;2023-03-21T04:19:02;11.13;;;5.37;;
5175;SDS011;2607;50.934;6.934;2023-03-21T04:21:27;6.27;;;5.23;;
5175;SDS011;2607;50.934;6.934;2023-03-21T04:23:53;9.30;;;4.83;;
5175;SDS011;2607;50.934;6.934;2023-03-21T04:26:20;5.90;;;3.70;;
5175;SDS011;2607;50.934;6.934;2023-03-21T04:28:47;8.13;;;4.50;;
5175;SDS011;2607;50.934;6.934;2023-03-21T04:31:13;11.23;;;4.40;;
5175;SDS011;2607;50.934;6.934;2023-03-21T04:33:39;6.90;;;4.33;;
5175;SDS011;2607;50.934;6.934;2023-03-21T04:36:05;7.07;;;3.87;;
5175;SDS011;2607;50.934;6.934;2023-03-21T04:38:33;7.60;;;4.00;;
5175;SDS011;2607;50.934;6.934;2023-03-21T04:40:59;8.70;;;4.40;;
5175;SDS011;2607;50.934;6.934;2023-03-21T04:43:26;6.50;;;3.50;;
5175;SDS011;2607;50.934;6.934;2023-03-21T04:45:52;4.90;;;3.80;;
5175;SDS011;2607;50.934;6.934;2023-03-21T04:48:18;9.00;;;3.77;;
5175;SDS011;2607;50.934;6.934;2023-03-21T04:50:48;3.83;;;3.27;;
5175;SDS011;2607;50.934;6.934;2023-03-21T04:53:14;5.23;;;3.67;;
5175;SDS011;2607;50.934;6.934;2023-03-21T04:55:40;5.53;;;3.67;;
5175;SDS011;2607;50.934;6.934;2023-03-21T04:58:05;8.83;;;3.83;;
5175;SDS011;2607;50.934;6.934;2023-03-21T05:00:31;5.33;;;4.07;;
5175;SDS011;2607;50.934;6.934;2023-03-21T05:03:07;6.53;;;3.43;;
5175;SDS011;2607;50.934;6.934;2023-03-21T05:05:36;6.83;;;3.90;;
5175;SDS011;2607;50.934;6.934;2023-03-21T05:08:02;6.47;;;4.07;;
5175;SDS011;2607;50.934;6.934;2023-03-21T05:10:29;5.80;;;3.80;;
5175;SDS011;2607;50.934;6.934;2023-03-21T05:12:54;6.40;;;4.20;;
5175;SDS011;2607;50.934;6.934;2023-03-21T05:15:20;5.20;;;3.93;;
5175;SDS011;2607;50.934;6.934;2023-03-21T05:17:46;9.20;;;4.23;;
5175;SDS011;2607;50.934;6.934;2023-03-21T05:20:12;6.43;;;4.17;;
5175;SDS011;2607;50.934;6.934;2023-03-21T05:22:41;7.73;;;3.80;;
5175;SDS011;2607;50.934;6.934;2023-03-21T05:25:10;4.17;;;3.87;;
5175;SDS011;2607;50.934;6.934;2023-03-21T05:27:37;5.50;;;3.80;;
5175;SDS011;2607;50.934;6.934;2023-03-21T05:30:10;8.23;;;4.67;;
5175;SDS011;2607;50.934;6.934;2023-03-21T05:32:38;4.30;;;3.70;;
5175;SDS011;2607;50.934;6.934;2023-03-21T05:35:04;7.83;;;4.30;;
5175;SDS011;2607;50.934;6.934;2023-03-21T05:37:30;9.70;;;4.73;;
5175;SDS011;2607;50.934;6.934;2023-03-21T05:39:56;9.50;;;4.53;;
5175;SDS011;2607;50.934;6.934;2023-03-21T05:42:22;8.07;;;4.57;;
5175;SDS011;2607;50.934;6.934;2023-03-21T05:44:47;8.53;;;4.50;;
5175;SDS011;2607;50.934;6.934;2023-03-21T05:47:13;5.40;;;4.77;;
5175;SDS011;2607;50.934;6.934;2023-03-21T05:49:41;5.40;;;4.70;;
5175;SDS011;2607;50.934;6.934;2023-03-21T05:52:07;5.00;;;3.87;;
5175;SDS011;2607;50.934;6.934;2023-03-21T05:54:33;9.73;;;5.07;;
5175;SDS011;2607;50.934;6.934;2023-03-21T05:56:59;10.50;;;4.20;;
5175;SDS011;2607;50.934;6.934;2023-03-21T05:59:24;11.70;;;5.10;;
5175;SDS011;2607;50.934;6.934;2023-03-21T06:01:50;6.00;;;4.30;;
5175;SDS011;2607;50.934;6.934;2023-03-21T06:04:16;14.80;;;4.80;;
5175;SDS011;2607;50.934;6.934;2023-03-21T06:06:41;4.40;;;4.00;;
5175;SDS011;2607;50.934;6.934;2023-03-21T06:09:07;11.23;;;4.20;;
5175;SDS011;2607;50.934;6.934;2023-03-21T06:11:33;9.17;;;5.07;;
5175;SDS011;2607;50.934;6.934;2023-03-21T06:14:01;10.03;;;5.17;;
5175;SDS011;2607;50.934;6.934;2023-03-21T06:16:27;8.30;;;5.00;;
5175;SDS011;2607;50.934;6.934;2023-03-21T06:18:52;15.30;;;4.93;;
5175;SDS011;2607;50.934;6.934;2023-03-21T06:21:19;9.50;;;4.70;;
5175;SDS011;2607;50.934;6.934;2023-03-21T06:23:45;9.07;;;4.10;;
5175;SDS011;2607;50.934;6.934;2023-03-21T06:26:11;14.60;;;4.90;;
5175;SDS011;2607;50.934;6.934;2023-03-21T06:28:37;6.80;;;4.40;;
5175;SDS011;2607;50.934;6.934;2023-03-21T06:31:03;6.80;;;4.30;;
5175;SDS011;2607;50.934;6.934;2023-03-21T06:33:29;7.20;;;5.20;;
5175;SDS011;2607;50.934;6.934;2023-03-21T06:35:56;11.23;;;4.40;;
5175;SDS011;2607;50.934;6.934;2023-03-21T06:38:23;8.23;;;5.27;;
5175;SDS011;2607;50.934;6.934;2023-03-21T06:40:49;12.63;;;5.27;;
5175;SDS011;2607;50.934;6.934;2023-03-21T06:43:15;5.43;;;4.93;;
5175;SDS011;2607;50.934;6.934;2023-03-21T06:45:42;9.03;;;4.37;;
5175;SDS011;2607;50.934;6.934;2023-03-21T06:48:08;6.00;;;4.70;;
5175;SDS011;2607;50.934;6.934;2023-03-21T06:50:33;10.13;;;5.03;;
5175;SDS011;2607;50.934;6.934;2023-03-21T06:52:59;8.90;;;5.47;;
5175;SDS011;2607;50.934;6.934;2023-03-21T06:55:25;14.33;;;5.10;;
5175;SDS011;2607;50.934;6.934;2023-03-21T06:57:52;15.77;;;4.93;;
5175;SDS011;2607;50.934;6.934;2023-03-21T07:00:19;8.60;;;5.00;;
5175;SDS011;2607;50.934;6.934;2023-03-21T07:02:45;10.50;;;4.80;;
5175;SDS011;2607;50.934;6.934;2023-03-21T07:05:11;10.70;;;5.03;;
5175;SDS011;2607;50.934;6.934;2023-03-21T07:07:37;10.40;;;5.53;;
5175;SDS011;2607;50.934;6.934;2023-03-21T07:10:03;8.57;;;5.90;;
5175;SDS011;2607;50.934;6.934;2023-03-21T07:12:30;10.37;;;5.00;;
5175;SDS011;2607;50.934;6.934;2023-03-21T07:15:00;7.43;;;5.10;;
5175;SDS011;2607;50.934;6.934;2023-03-21T07:17:30;11.70;;;6.40;;
5175;SDS011;2607;50.934;6.934;2023-03-21T07:19:56;9.30;;;5.70;;
5175;SDS011;2607;50.934;6.934;2023-03-21T07:22:22;13.23;;;6.37;;
5175;SDS011;2607;50.934;6.934;2023-03-21T07:24:47;6.43;;;5.20;;
5175;SDS011;2607;50.934;6.934;2023-03-21T07:27:13;10.83;;;5.90;;
5175;SDS011;2607;50.934;6.934;2023-03-21T07:29:40;11.47;;;6.00;;
5175;SDS011;2607;50.934;6.934;2023-03-21T07:32:06;8.03;;;5.20;;
5175;SDS011;2607;50.934;6.934;2023-03-21T07:34:31;7.80;;;6.03;;
5175;SDS011;2607;50.934;6.934;2023-03-21T07:36:57;10.97;;;5.67;;
5175;SDS011;2607;50.934;6.934;2023-03-21T07:39:24;10.40;;;5.50;;
5175;SDS011;2607;50.934;6.934;2023-03-21T07:41:51;8.30;;;6.20;;
5175;SDS011;2607;50.934;6.934;2023-03-21T07:44:16;7.10;;;4.60;;
5175;SDS011;2607;50.934;6.934;2023-03-21T07:46:42;11.07;;;6.27;;
5175;SDS011;2607;50.934;6.934;2023-03-21T07:49:07;10.10;;;5.37;;
5175;SDS011;2607;50.934;6.934;2023-03-21T07:51:33;8.17;;;5.63;;
5175;SDS011;2607;50.934;6.934;2023-03-21T07:54:00;12.83;;;6.20;;
5175;SDS011;2607;50.934;6.934;2023-03-21T07:56:26;9.73;;;5.10;;
5175;SDS011;2607;50.934;6.934;2023-03-21T07:58:52;16.37;;;6.20;;
5175;SDS011;2607;50.934;6.934;2023-03-21T08:01:18;9.70;;;5.87;;
5175;SDS011;2607;50.934;6.934;2023-03-21T08:03:43;7.43;;;5.60;;
5175;SDS011;2607;50.934;6.934;2023-03-21T08:06:09;12.80;;;6.10;;
5175;SDS011;2607;50.934;6.934;2023-03-21T08:08:35;19.00;;;7.27;;
5175;SDS011;2607;50.934;6.934;2023-03-21T08:11:02;11.70;;;6.73;;
5175;SDS011;2607;50.934;6.934;2023-03-21T08:13:28;14.37;;;6.50;;
5175;SDS011;2607;50.934;6.934;2023-03-21T08:15:54;10.57;;;5.40;;
5175;SDS011;2607;50.934;6.934;2023-03-21T08:18:19;7.13;;;5.73;;
5175;SDS011;2607;50.934;6.934;2023-03-21T08:20:45;11.57;;;5.80;;
5175;SDS011;2607;50.934;6.934;2023-03-21T08:23:19;8.83;;;6.10;;
5175;SDS011;2607;50.934;6.934;2023-03-21T08:25:45;6.43;;;5.67;;
5175;SDS011;2607;50.934;6.934;2023-03-21T08:28:15;9.43;;;6.23;;
5175;SDS011;2607;50.934;6.934;2023-03-21T08:30:40;8.17;;;6.07;;
5175;SDS011;2607;50.934;6.934;2023-03-21T08:33:06;11.33;;;6.30;;
5175;SDS011;2607;50.934;6.934;2023-03-21T08:35:37;18.53;;;7.00;;
5175;SDS011;2607;50.934;6.934;2023-03-21T08:38:03;10.47;;;6.67;;
5175;SDS011;2607;50.934;6.934;2023-03-21T08:40:28;19.73;;;7.00;;
5175;SDS011;2607;50.934;6.934;2023-03-21T08:42:54;6.97;;;6.23;;
5175;SDS011;2607;50.934;6.934;2023-03-21T08:45:20;10.70;;;6.50;;
5175;SDS011;2607;50.934;6.934;2023-03-21T08:47:46;19.40;;;7.67;;
5175;SDS011;2607;50.934;6.934;2023-03-21T08:50:14;11.20;;;5.60;;
5175;SDS011;2607;50.934;6.934;2023-03-21T08:52:42;10.13;;;6.17;;
5175;SDS011;2607;50.934;6.934;2023-03-21T08:55:08;7.67;;;5.60;;
5175;SDS011;2607;50.934;6.934;2023-03-21T08:57:34;7.67;;;5.67;;
5175;SDS011;2607;50.934;6.934;2023-03-21T09:00:00;10.50;;;5.97;;
5175;SDS011;2607;50.934;6.934;2023-03-21T09:02:31;6.37;;;5.27;;
5175;SDS011;2607;50.934;6.934;2023-03-21T09:04:56;7.20;;;5.53;;
5175;SDS011;2607;50.934;6.934;2023-03-21T09:07:23;12.53;;;5.70;;
5175;SDS011;2607;50.934;6.934;2023-03-21T09:09:50;8.90;;;6.10;;
5175;SDS011;2607;50.934;6.934;2023-03-21T09:12:17;8.30;;;6.10;;
5175;SDS011;2607;50.934;6.934;2023-03-21T09:14:43;15.13;;;5.93;;
5175;SDS011;2607;50.934;6.934;2023-03-21T09:17:08;9.43;;;5.37;;
5175;SDS011;2607;50.934;6.934;2023-03-21T09:19:34;7.83;;;4.83;;
5175;SDS011;2607;50.934;6.934;2023-03-21T09:22:00;11.43;;;5.70;;
5175;SDS011;2607;50.934;6.934;2023-03-21T09:24:27;13.00;;;6.53;;
5175;SDS011;2607;50.934;6.934;2023-03-21T09:26:52;9.30;;;5.10;;
5175;SDS011;2607;50.934;6.934;2023-03-21T09:29:18;15.37;;;6.03;;
5175;SDS011;2607;50.934;6.934;2023-03-21T09:31:45;6.97;;;6.27;;
5175;SDS011;2607;50.934;6.934;2023-03-21T09:34:11;7.43;;;5.77;;
5175;SDS011;2607;50.934;6.934;2023-03-21T09:36:39;8.50;;;5.73;;
5175;SDS011;2607;50.934;6.934;2023-03-21T09:39:06;6.93;;;5.03;;
5175;SDS011;2607;50.934;6.934;2023-03-21T09:41:51;6.63;;;5.30;;
5175;SDS011;2607;50.934;6.934;2023-03-21T09:49:44;10.90;;;6.87;;
5175;SDS011;2607;50.934;6.934;2023-03-21T09:54:50;5.90;;;5.40;;
5175;SDS011;2607;50.934;6.934;2023-03-21T10:00:02;9.63;;;6.17;;
5175;SDS011;2607;50.934;6.934;2023-03-21T10:02:34;7.67;;;5.70;;
5175;SDS011;2607;50.934;6.934;2023-03-21T10:05:08;8.37;;;5.87;;
5175;SDS011;2607;50.934;6.934;2023-03-21T10:08:05;12.63;;;6.00;;
5175;SDS011;2607;50.934;6.934;2023-03-21T10:10:39;8.07;;;5.70;;
5175;SDS011;2607;50.934;6.934;2023-03-21T10:13:21;7.67;;;6.10;;
5175;SDS011;2607;50.934;6.934;2023-03-21T10:15:55;10.90;;;5.80;;
5175;SDS011;2607;50.934;6.934;2023-03-21T10:18:22;9.67;;;5.40;;
5175;SDS011;2607;50.934;6.934;2023-03-21T10:20:50;8.50;;;5.53;;
5175;SDS011;2607;50.934;6.934;2023-03-21T10:23:17;7.20;;;5.00;;
5175;SDS011;2607;50.934;6.934;2023-03-21T10:25:50;12.00;;;5.67;;
5175;SDS011;2607;50.934;6.934;2023-03-21T10:28:21;12.00;;;6.10;;
5175;SDS011;2607;50.934;6.934;2023-03-21T10:30:54;21.73;;;13.00;;
5175;SDS011;2607;50.934;6.934;2023-03-21T10:33:36;12.60;;;6.67;;
5175;SDS011;2607;50.934;6.934;2023-03-21T10:38:34;12.40;;;6.47;;
5175;SDS011;2607;50.934;6.934;2023-03-21T10:41:03;14.67;;;6.77;;
5175;SDS011;2607;50.934;6.934;2023-03-21T10:43:31;6.47;;;5.87;;
5175;SDS011;2607;50.934;6.934;2023-03-21T10:46:04;11.53;;;7.50;;
5175;SDS011;2607;50.934;6.934;2023-03-21T10:48:51;15.53;;;10.70;;
5175;SDS011;2607;50.934;6.934;2023-03-21T10:51:19;13.40;;;7.43;;
5175;SDS011;2607;50.934;6.934;2023-03-21T10:53:51;8.77;;;6.73;;
5175;SDS011;2607;50.934;6.934;2023-03-21T10:56:22;12.63;;;6.90;;
5175;SDS011;2607;50.934;6.934;2023-03-21T10:58:53;12.60;;;6.67;;
5175;SDS011;2607;50.934;6.934;2023-03-21T11:01:33;7.83;;;6.40;;
5175;SDS011;2607;50.934;6.934;2023-03-21T11:04:05;14.77;;;6.70;;
5175;SDS011;2607;50.934;6.934;2023-03-21T11:06:41;6.80;;;5.73;;
5175;SDS011;2607;50.934;6.934;2023-03-21T11:09:16;9.20;;;7.70;;
5175;SDS011;2607;50.934;6.934;2023-03-21T11:12:27;10.43;;;6.53;;
5175;SDS011;2607;50.934;6.934;2023-03-21T11:14:40;8.93;;;6.40;;
5175;SDS011;2607;50.934;6.934;2023-03-21T11:19:50;14.00;;;6.80;;
5175;SDS011;2607;50.934;6.934;2023-03-21T11:22:22;13.57;;;6.60;;
5175;SDS011;2607;50.934;6.934;2023-03-21T11:24:52;8.63;;;6.47;;
5175;SDS011;2607;50.934;6.934;2023-03-21T11:27:21;10.53;;;7.10;;
5175;SDS011;2607;50.934;6.934;2023-03-21T11:29:49;10.77;;;7.10;;
5175;SDS011;2607;50.934;6.934;2023-03-21T11:34:59;10.60;;;7.50;;
5175;SDS011;2607;50.934;6.934;2023-03-21T11:42:47;8.03;;;6.43;;
5175;SDS011;2607;50.934;6.934;2023-03-21T11:45:26;5.30;;;4.67;;
5175;SDS011;2607;50.934;6.934;2023-03-21T11:48:00;7.70;;;5.17;;
5175;SDS011;2607;50.934;6.934;2023-03-21T11:50:50;7.57;;;5.67;;
5175;SDS011;2607;50.934;6.934;2023-03-21T11:56:11;12.20;;;6.10;;
5175;SDS011;2607;50.934;6.934;2023-03-21T11:58:43;11.70;;;6.30;;
5175;SDS011;2607;50.934;6.934;2023-03-21T12:06:34;9.87;;;5.90;;
5175;SDS011;2607;50.934;6.934;2023-03-21T12:25:18;8.83;;;5.70;;
5175;SDS011;2607;50.934;6.934;2023-03-21T12:28:04;7.63;;;5.27;;
5175;SDS011;2607;50.934;6.934;2023-03-21T12:39:11;5.73;;;5.13;;
5175;SDS011;2607;50.934;6.934;2023-03-21T12:41:44;10.13;;;4.73;;
5175;SDS011;2607;50.934;6.934;2023-03-21T12:44:25;5.40;;;4.77;;
5175;SDS011;2607;50.934;6.934;2023-03-21T12:47:00;7.77;;;5.60;;
5175;SDS011;2607;50.934;6.934;2023-03-21T12:49:34;6.77;;;5.93;;
5175;SDS011;2607;50.934;6.934;2023-03-21T12:54:47;8.60;;;5.50;;
5175;SDS011;2607;50.934;6.934;2023-03-21T12:57:18;9.20;;;6.03;;
5175;SDS011;2607;50.934;6.934;2023-03-21T13:05:26;4.97;;;4.50;;
5175;SDS011;2607;50.934;6.934;2023-03-21T13:07:58;8.17;;;5.30;;
5175;SDS011;2607;50.934;6.934;2023-03-21T13:10:38;10.53;;;5.47;;
5175;SDS011;2607;50.934;6.934;2023-03-21T13:21:36;5.80;;;4.77;;
5175;SDS011;2607;50.934;6.934;2023-03-21T13:24:04;10.50;;;6.60;;
5175;SDS011;2607;50.934;6.934;2023-03-21T13:26:56;6.10;;;5.03;;
5175;SDS011;2607;50.934;6.934;2023-03-21T13:29:32;6.07;;;5.40;;
5175;SDS011;2607;50.934;6.934;2023-03-21T13:32:24;9.43;;;5.77;;
5175;SDS011;2607;50.934;6.934;2023-03-21T13:34:55;8.23;;;5.30;;
5175;SDS011;2607;50.934;6.934;2023-03-21T13:37:31;9.40;;;6.87;;
5175;SDS011;2607;50.934;6.934;2023-03-21T13:40:00;12.20;;;6.67;;
5175;SDS011;2607;50.934;6.934;2023-03-21T13:42:41;6.17;;;5.60;;
5175;SDS011;2607;50.934;6.934;2023-03-21T13:45:09;6.63;;;4.90;;
5175;SDS011;2607;50.934;6.934;2023-03-21T13:47:38;5.90;;;5.37;;
5175;SDS011;2607;50.934;6.934;2023-03-21T13:50:26;6.90;;;6.20;;
5175;SDS011;2607;50.934;6.934;2023-03-21T13:55:26;9.27;;;6.50;;
5175;SDS011;2607;50.934;6.934;2023-03-21T13:58:00;11.57;;;5.30;;
5175;SDS011;2607;50.934;6.934;2023-03-21T14:01:12;7.30;;;4.70;;
5175;SDS011;2607;50.934;6.934;2023-03-21T14:03:45;9.93;;;5.10;;
5175;SDS011;2607;50.934;6.934;2023-03-21T14:06:11;10.00;;;5.03;;
5175;SDS011;2607;50.934;6.934;2023-03-21T14:08:39;6.43;;;4.50;;
5175;SDS011;2607;50.934;6.934;2023-03-21T14:11:09;6.77;;;5.00;;
5175;SDS011;2607;50.934;6.934;2023-03-21T14:13:40;6.33;;;5.47;;
5175;SDS011;2607;50.934;6.934;2023-03-21T14:16:13;12.63;;;5.10;;
5175;SDS011;2607;50.934;6.934;2023-03-21T14:18:45;4.93;;;4.47;;
5175;SDS011;2607;50.934;6.934;2023-03-21T14:21:19;5.17;;;4.67;;
5175;SDS011;2607;50.934;6.934;2023-03-21T14:23:53;6.47;;;5.43;;
5175;SDS011;2607;50.934;6.934;2023-03-21T14:26:22;6.73;;;4.53;;
5175;SDS011;2607;50.934;6.934;2023-03-21T14:28:50;6.77;;;5.10;;
5175;SDS011;2607;50.934;6.934;2023-03-21T14:31:17;4.63;;;4.33;;
5175;SDS011;2607;50.934;6.934;2023-03-21T14:33:45;5.60;;;5.10;;
5175;SDS011;2607;50.934;6.934;2023-03-21T14:36:16;5.20;;;4.80;;
5175;SDS011;2607;50.934;6.934;2023-03-21T14:41:54;5.10;;;4.73;;
5175;SDS011;2607;50.934;6.934;2023-03-21T14:44:26;5.90;;;4.93;;
5175;SDS011;2607;50.934;6.934;2023-03-21T14:47:08;8.13;;;4.80;;
5175;SDS011;2607;50.934;6.934;2023-03-21T14:49:43;4.20;;;3.80;;
5175;SDS011;2607;50.934;6.934;2023-03-21T14:52:10;12.67;;;8.27;;
5175;SDS011;2607;50.934;6.934;2023-03-21T14:54:56;6.10;;;4.63;;
5175;SDS011;2607;50.934;6.934;2023-03-21T14:57:25;4.80;;;4.07;;
5175;SDS011;2607;50.934;6.934;2023-03-21T14:59:53;4.77;;;4.47;;
5175;SDS011;2607;50.934;6.934;2023-03-21T15:02:22;5.17;;;4.67;;
5175;SDS011;2607;50.934;6.934;2023-03-21T15:04:57;6.50;;;4.63;;
5175;SDS011;2607;50.934;6.934;2023-03-21T15:07:31;8.13;;;6.23;;
5175;SDS011;2607;50.934;6.934;2023-03-21T15:10:02;12.13;;;5.70;;
5175;SDS011;2607;50.934;6.934;2023-03-21T15:12:31;7.77;;;5.13;;
5175;SDS011;2607;50.934;6.934;2023-03-21T15:14:57;7.60;;;5.93;;
5175;SDS011;2607;50.934;6.934;2023-03-21T15:17:23;6.33;;;5.70;;
5175;SDS011;2607;50.934;6.934;2023-03-21T15:19:50;5.63;;;4.23;;
5175;SDS011;2607;50.934;6.934;2023-03-21T15:25:05;5.00;;;4.60;;
5175;SDS011;2607;50.934;6.934;2023-03-21T15:27:39;8.70;;;4.30;;
5175;SDS011;2607;50.934;6.934;2023-03-21T15:30:06;4.60;;;4.13;;
5175;SDS011;2607;50.934;6.934;2023-03-21T15:32:42;5.30;;;4.90;;
5175;SDS011;2607;50.934;6.934;2023-03-21T15:35:12;6.80;;;4.70;;
5175;SDS011;2607;50.934;6.934;2023-03-21T15:37:41;10.43;;;4.80;;
5175;SDS011;2607;50.934;6.934;2023-03-21T15:40:08;6.00;;;4.30;;
5175;SDS011;2607;50.934;6.934;2023-03-21T15:42:42;4.67;;;4.27;;
5175;SDS011;2607;50.934;6.934;2023-03-21T15:45:18;4.63;;;4.20;;
5175;SDS011;2607;50.934;6.934;2023-03-21T15:50:20;7.53;;;4.43;;
5175;SDS011;2607;50.934;6.934;2023-03-21T15:52:50;4.50;;;4.10;;
5175;SDS011;2607;50.934;6.934;2023-03-21T15:57:49;6.30;;;4.43;;
5175;SDS011;2607;50.934;6.934;2023-03-21T16:00:22;5.60;;;3.90;;
5175;SDS011;2607;50.934;6.934;2023-03-21T16:03:41;6.83;;;4.33;;
5175;SDS011;2607;50.934;6.934;2023-03-21T16:08:34;4.80;;;4.10;;
5175;SDS011;2607;50.934;6.934;2023-03-21T16:11:07;4.33;;;3.87;;
5175;SDS011;2607;50.934;6.934;2023-03-21T16:13:39;5.17;;;4.60;;
5175;SDS011;2607;50.934;6.934;2023-03-21T16:16:05;5.10;;;4.60;;
5175;SDS011;2607;50.934;6.934;2023-03-21T16:18:31;5.93;;;4.83;;
5175;SDS011;2607;50.934;6.934;2023-03-21T16:20:56;7.37;;;5.03;;
5175;SDS011;2607;50.934;6.934;2023-03-21T16:23:23;6.63;;;4.30;;
5175;SDS011;2607;50.934;6.934;2023-03-21T16:25:49;5.23;;;4.83;;
5175;SDS011;2607;50.934;6.934;2023-03-21T16:28:21;8.53;;;4.77;;
5175;SDS011;2607;50.934;6.934;2023-03-21T16:30:47;3.80;;;3.27;;
5175;SDS011;2607;50.934;6.934;2023-03-21T16:33:14;4.40;;;3.80;;
5175;SDS011;2607;50.934;6.934;2023-03-21T16:35:40;4.70;;;3.43;;
5175;SDS011;2607;50.934;6.934;2023-03-21T16:38:05;3.70;;;3.43;;
5175;SDS011;2607;50.934;6.934;2023-03-21T16:40:32;4.30;;;3.90;;
5175;SDS011;2607;50.934;6.934;2023-03-21T16:43:00;3.90;;;3.60;;
5175;SDS011;2607;50.934;6.934;2023-03-21T16:45:26;3.50;;;3.30;;
5175;SDS011;2607;50.934;6.934;2023-03-21T16:47:54;4.57;;;3.83;;
5175;SDS011;2607;50.934;6.934;2023-03-21T16:50:30;4.10;;;3.80;;
5175;SDS011;2607;50.934;6.934;2023-03-21T16:53:00;8.10;;;3.80;;
5175;SDS011;2607;50.934;6.934;2023-03-21T16:55:26;3.23;;;3.10;;
5175;SDS011;2607;50.934;6.934;2023-03-21T16:57:53;4.40;;;4.07;;
5175;SDS011;2607;50.934;6.934;2023-03-21T17:00:21;4.30;;;4.00;;
5175;SDS011;2607;50.934;6.934;2023-03-21T17:02:49;6.30;;;5.00;;
5175;SDS011;2607;50.934;6.934;2023-03-21T17:05:17;5.23;;;4.27;;
5175;SDS011;2607;50.934;6.934;2023-03-21T17:07:43;5.97;;;5.30;;
5175;SDS011;2607;50.934;6.934;2023-03-21T17:10:19;14.03;;;4.33;;
5175;SDS011;2607;50.934;6.934;2023-03-21T17:12:47;4.10;;;3.70;;
5175;SDS011;2607;50.934;6.934;2023-03-21T17:15:13;4.97;;;3.87;;
5175;SDS011;2607;50.934;6.934;2023-03-21T17:17:39;4.37;;;3.97;;
5175;SDS011;2607;50.934;6.934;2023-03-21T17:20:10;4.43;;;3.83;;
5175;SDS011;2607;50.934;6.934;2023-03-21T17:22:41;3.90;;;3.60;;
5175;SDS011;2607;50.934;6.934;2023-03-21T17:25:07;4.10;;;3.80;;
5175;SDS011;2607;50.934;6.934;2023-03-21T17:27:32;5.47;;;3.90;;
5175;SDS011;2607;50.934;6.934;2023-03-21T17:29:58;3.80;;;3.50;;
5175;SDS011;2607;50.934;6.934;2023-03-21T17:32:23;6.93;;;3.80;;